CheckWX is a tool to help pilots better visualize weather data.  It is not intended as a substitute for an official pre-flight weather briefing.

16:27:04 UTC

LZTT TAF
Poprad-Tatry Airport
Poprad, Slovakia (Slovak Republic)
TAF LZTT 181100Z 1812/1912 20008KT 9999 SCT020 BKN030 PROB40 TEMPO 1812/1815 5000 RASN OVC014 PROB30 TEMPO 1815/1820 1300 -SN BR BKN004 OVC012 BECMG 1900/1902 06004KT CAVOK

Mar-18@
12:00 UTC

Mar-18 @ 12:00 UTC

Mar-19@
00:00 UTC

Mar-19 @ 00:00 UTC

TAF LZTT 181100Z 1812/1912 20008KT 9999 SCT020 BKN030
Wind
  • 200° at 8 KTS
Cloud Levels
  • Scattered at 2,000' AGL
  • Broken at 3,000' AGL

Mar-18@
12:00 UTC

Mar-18 @ 12:00 UTC

Mar-18@
15:00 UTC

Mar-18 @ 15:00 UTC

PROB40 TEMPO 1812/1815 5000 RASN OVC014

Expired

Conditions
Rain, Snow
Cloud Levels
  • Overcast at 1,400' AGL

Mar-18@
15:00 UTC

Mar-18 @ 15:00 UTC

Mar-18@
20:00 UTC

Mar-18 @ 20:00 UTC

PROB30 TEMPO 1815/1820 1300 -SN BR BKN004 OVC012

Temporary - 30% Likelihood

Temporary - 30% Likelihood during this time.

Conditions
Light Snow, Mist
Cloud Levels
  • Broken at 400' AGL
  • Overcast at 1,200' AGL

Mar-19@
00:00 UTC

Mar-19 @ 00:00 UTC

Mar-19@
12:00 UTC

Mar-19 @ 12:00 UTC

BECMG 1900/1902 06004KT CAVOK

Becoming

Becoming Conditions expected by Tue, Mar 19, 2019 @ 02:00 UTC

Wind
  • 060° at 4 KTS
Conditions
No significant weather
Cloud Levels
  • No significant clouds